createdAt,value
2019-01-18T00:00:36.620Z,75.07
2019-01-18T00:03:08.462Z,75.26
2019-01-18T00:05:40.268Z,75.00
2019-01-18T00:08:12.070Z,75.17
2019-01-18T00:10:46.366Z,74.77
2019-01-18T00:13:18.171Z,74.83
2019-01-18T00:15:50.974Z,74.89
2019-01-18T00:18:24.254Z,74.33
2019-01-18T00:20:56.089Z,74.42
2019-01-18T00:23:29.021Z,74.55
2019-01-18T00:26:02.409Z,74.43
2019-01-18T00:28:35.852Z,74.22
2019-01-18T00:31:07.680Z,74.27
2019-01-18T00:33:41.057Z,74.39
2019-01-18T00:36:12.890Z,74.44
2019-01-18T00:38:44.708Z,74.14
2019-01-18T00:41:16.539Z,73.98
2019-01-18T00:43:50.439Z,73.90
2019-01-18T00:46:23.255Z,73.41
2019-01-18T00:48:57.126Z,73.60
2019-01-18T00:51:31.761Z,73.34
2019-01-18T00:54:03.641Z,73.23
2019-01-18T00:56:35.462Z,73.00
2019-01-18T00:59:07.337Z,73.10
2019-01-18T01:01:40.684Z,73.32
2019-01-18T01:04:12.512Z,72.50
2019-01-18T01:06:44.347Z,72.52
2019-01-18T01:09:17.525Z,71.71
2019-01-18T01:11:49.365Z,71.63
2019-01-18T01:14:22.796Z,71.98
2019-01-18T01:16:54.725Z,71.62
2019-01-18T01:19:26.536Z,71.40
2019-01-18T01:21:58.366Z,71.46
2019-01-18T01:24:31.306Z,72.05
2019-01-18T01:27:03.223Z,71.45
2019-01-18T01:29:43.186Z,71.25
2019-01-18T01:32:14.568Z,71.35
2019-01-18T01:34:46.387Z,72.06
2019-01-18T01:37:21.205Z,72.10
2019-01-18T01:39:54.743Z,72.19
2019-01-18T01:42:26.573Z,72.00
2019-01-18T01:44:59.857Z,72.32
2019-01-18T01:47:31.668Z,72.32
2019-01-18T01:50:03.545Z,72.45
2019-01-18T01:52:35.347Z,72.70
2019-01-18T01:55:08.242Z,73.05
2019-01-18T01:57:40.059Z,72.93
2019-01-18T02:00:23.997Z,72.24
2019-01-18T02:02:55.794Z,72.70
2019-01-18T02:05:27.639Z,72.94
2019-01-18T02:07:59.456Z,72.50
2019-01-18T02:10:31.266Z,72.40
2019-01-18T02:13:04.718Z,72.53
2019-01-18T02:15:36.553Z,72.66
2019-01-18T02:18:08.355Z,72.65
2019-01-18T02:20:40.196Z,72.66
2019-01-18T02:23:12.096Z,72.73
2019-01-18T02:25:43.931Z,72.44
2019-01-18T02:28:17.867Z,72.73
2019-01-18T02:30:49.694Z,72.84
2019-01-18T02:33:21.526Z,72.81
2019-01-18T02:35:53.342Z,73.07
2019-01-18T02:38:25.186Z,73.12
2019-01-18T02:40:56.981Z,73.20
2019-01-18T02:43:28.824Z,72.98
2019-01-18T02:46:00.649Z,72.36
2019-01-18T02:48:32.460Z,72.56
2019-01-18T02:51:04.265Z,72.62
2019-01-18T02:53:37.195Z,72.82
2019-01-18T02:56:09.019Z,72.17
2019-01-18T02:58:40.843Z,72.20
2019-01-18T03:01:12.654Z,71.88
2019-01-18T03:03:44.497Z,72.17
2019-01-18T03:06:16.307Z,71.98
2019-01-18T03:08:48.148Z,71.68
2019-01-18T03:11:19.957Z,71.82
2019-01-18T03:13:51.860Z,71.72
2019-01-18T03:16:23.691Z,71.37
2019-01-18T03:18:56.500Z,71.50
2019-01-18T03:21:28.309Z,71.28
2019-01-18T03:24:00.133Z,71.42
2019-01-18T03:26:31.977Z,71.16
2019-01-18T03:29:03.793Z,70.75
2019-01-18T03:31:35.654Z,71.09
2019-01-18T03:34:07.433Z,71.28
2019-01-18T03:36:41.040Z,70.98
2019-01-18T03:39:12.844Z,71.47
2019-01-18T03:41:44.673Z,71.58
2019-01-18T03:44:16.504Z,72.23
2019-01-18T03:46:48.320Z,72.37
2019-01-18T03:49:21.290Z,71.64
2019-01-18T03:51:53.100Z,71.83
2019-01-18T03:54:24.950Z,71.73
2019-01-18T03:56:56.739Z,72.04
2019-01-18T03:59:28.658Z,72.29
2019-01-18T04:02:00.451Z,72.70
2019-01-18T04:04:32.281Z,72.57
2019-01-18T04:07:04.077Z,72.52
2019-01-18T04:09:36.004Z,72.37
2019-01-18T04:12:07.819Z,72.71
2019-01-18T04:14:39.630Z,72.71
2019-01-18T04:17:14.174Z,72.52
2019-01-18T04:19:45.993Z,72.62
2019-01-18T04:22:17.795Z,73.10
2019-01-18T04:24:49.619Z,73.02
2019-01-18T04:27:21.424Z,72.97
2019-01-18T04:29:53.245Z,72.66
2019-01-18T04:32:25.046Z,72.56
2019-01-18T04:34:56.848Z,72.62
2019-01-18T04:37:28.681Z,72.56
2019-01-18T04:40:00.494Z,72.38
2019-01-18T04:42:32.306Z,72.49
2019-01-18T04:45:04.037Z,72.33
2019-01-18T04:47:35.868Z,72.35
2019-01-18T04:50:12.916Z,72.79
2019-01-18T04:52:45.024Z,72.55
2019-01-18T04:55:17.130Z,72.18
2019-01-18T04:57:48.958Z,72.25
2019-01-18T05:00:26.838Z,72.25
2019-01-18T05:02:58.656Z,71.97
2019-01-18T05:05:30.484Z,72.13
2019-01-18T05:08:02.304Z,72.22
2019-01-18T05:10:36.751Z,72.37
2019-01-18T05:13:07.657Z,72.36
2019-01-18T05:15:40.821Z,72.27
2019-01-18T05:18:12.586Z,71.80
2019-01-18T05:20:44.435Z,72.26
2019-01-18T05:23:16.263Z,72.10
2019-01-18T05:25:48.082Z,72.37
2019-01-18T05:28:19.898Z,72.54
2019-01-18T05:30:51.719Z,72.58
2019-01-18T05:33:23.521Z,72.66
2019-01-18T05:35:55.445Z,72.79
2019-01-18T05:38:27.244Z,72.73
2019-01-18T05:40:59.062Z,72.86
2019-01-18T05:43:30.862Z,73.07
2019-01-18T05:46:06.836Z,73.22
2019-01-18T05:48:41.402Z,73.02
2019-01-18T05:51:13.220Z,72.77
2019-01-18T05:53:45.092Z,73.37
2019-01-18T05:56:16.942Z,73.28
2019-01-18T05:58:48.768Z,73.55
2019-01-18T06:01:26.580Z,73.56
2019-01-18T06:06:40.033Z,73.90
2019-01-18T06:09:11.876Z,73.90
2019-01-18T06:11:46.707Z,73.74
2019-01-18T06:14:18.536Z,73.34
2019-01-18T06:16:50.388Z,73.33
2019-01-18T06:19:22.219Z,73.85
2019-01-18T06:21:54.068Z,73.87
2019-01-18T06:24:31.436Z,73.84
2019-01-18T06:27:01.811Z,73.79
2019-01-18T06:29:33.682Z,73.86
2019-01-18T06:32:07.864Z,73.74
2019-01-18T06:34:41.803Z,73.77
2019-01-18T06:37:16.042Z,73.67
2019-01-18T06:39:49.070Z,73.47
2019-01-18T06:42:26.818Z,73.51
2019-01-18T06:45:00.242Z,73.52
2019-01-18T06:47:32.137Z,73.40
2019-01-18T06:50:03.926Z,73.54
2019-01-18T06:52:35.757Z,73.57
2019-01-18T06:55:13.417Z,73.58
2019-01-18T06:57:45.369Z,73.78
2019-01-18T07:00:33.440Z,74.12
2019-01-18T07:03:04.358Z,74.29
2019-01-18T07:05:36.190Z,74.30
2019-01-18T07:08:08.026Z,74.73
2019-01-18T07:10:39.850Z,74.89
2019-01-18T07:13:11.666Z,75.04
2019-01-18T07:15:43.515Z,75.02
2019-01-18T07:18:17.093Z,75.11
2019-01-18T07:20:48.985Z,75.24
2019-01-18T07:23:20.817Z,75.43
2019-01-18T07:25:52.658Z,75.45
2019-01-18T07:28:24.473Z,75.73
2019-01-18T07:30:56.297Z,75.67
2019-01-18T07:33:29.140Z,75.57
2019-01-18T07:36:00.924Z,75.76
2019-01-18T07:38:36.334Z,75.92
2019-01-18T07:41:08.160Z,76.23
2019-01-18T07:43:39.987Z,76.56
2019-01-18T07:46:19.403Z,76.71
2019-01-18T07:48:51.325Z,76.40
2019-01-18T07:51:23.146Z,76.51
2019-01-18T07:53:56.094Z,76.54
2019-01-18T07:56:29.556Z,76.78
2019-01-18T07:59:04.423Z,76.60
2019-01-18T08:01:36.247Z,76.70
2019-01-18T08:04:10.978Z,76.29
2019-01-18T08:06:45.227Z,76.22
2019-01-18T08:09:18.691Z,76.24
2019-01-18T08:11:50.522Z,76.37
2019-01-18T08:14:22.368Z,76.03
2019-01-18T08:16:54.197Z,75.87
2019-01-18T08:19:26.031Z,75.61
2019-01-18T08:21:57.857Z,75.73
2019-01-18T08:24:29.673Z,75.47
2019-01-18T08:27:01.511Z,75.52
2019-01-18T08:29:33.316Z,75.33
2019-01-18T08:32:05.253Z,75.34
2019-01-18T08:34:37.186Z,75.37
2019-01-18T08:37:09.997Z,75.43
2019-01-18T08:39:41.826Z,75.38
2019-01-18T08:42:13.662Z,75.22
2019-01-18T08:44:45.457Z,74.78
2019-01-18T08:47:18.374Z,73.72
2019-01-18T08:49:50.236Z,73.39
2019-01-18T08:52:22.093Z,73.39
2019-01-18T08:54:59.695Z,73.85
2019-01-18T08:57:31.501Z,73.78
2019-01-18T09:00:03.924Z,73.76
2019-01-18T09:02:35.728Z,73.57
2019-01-18T09:05:13.006Z,73.96
2019-01-18T09:07:44.849Z,74.33
2019-01-18T09:10:19.001Z,74.25
2019-01-18T09:12:50.823Z,73.95
2019-01-18T09:15:22.867Z,74.28
2019-01-18T09:17:54.682Z,74.37
2019-01-18T09:20:28.391Z,74.09
2019-01-18T09:23:00.221Z,74.00
2019-01-18T09:25:32.050Z,74.06
2019-01-18T09:28:03.862Z,74.41
2019-01-18T09:30:36.295Z,74.03
2019-01-18T09:33:10.100Z,74.57
2019-01-18T09:35:42.868Z,75.06
2019-01-18T09:38:17.948Z,74.98
2019-01-18T09:40:50.037Z,74.89
2019-01-18T09:43:24.706Z,75.16
2019-01-18T09:45:56.584Z,75.80
2019-01-18T09:48:28.401Z,75.47
2019-01-18T09:51:00.224Z,75.47
2019-01-18T09:53:32.069Z,75.53
2019-01-18T09:56:04.489Z,75.61
2019-01-18T09:58:36.297Z,76.05
2019-01-18T10:01:08.220Z,75.69
2019-01-18T10:03:40.048Z,75.06
2019-01-18T10:06:11.851Z,74.86
2019-01-18T10:08:43.722Z,74.43
2019-01-18T10:11:15.562Z,74.42
2019-01-18T10:13:47.422Z,75.29
2019-01-18T10:16:19.259Z,74.56
2019-01-18T10:18:51.119Z,73.23
2019-01-18T10:21:23.010Z,73.24
2019-01-18T10:23:56.201Z,73.48
2019-01-18T10:26:30.135Z,72.30
2019-01-18T10:29:04.400Z,73.09
2019-01-18T10:31:36.235Z,73.33
2019-01-18T10:34:08.052Z,73.22
2019-01-18T10:36:40.938Z,73.13
2019-01-18T10:39:12.773Z,73.54
2019-01-18T10:41:44.629Z,73.82
2019-01-18T10:44:16.404Z,72.54
2019-01-18T10:46:48.243Z,72.26
2019-01-18T10:49:20.065Z,70.67
2019-01-18T10:51:51.891Z,70.56
2019-01-18T10:54:23.691Z,70.37
2019-01-18T10:56:55.544Z,70.96
2019-01-18T10:59:27.373Z,71.47
2019-01-18T11:02:03.415Z,70.88
2019-01-18T11:04:32.799Z,70.02
2019-01-18T11:07:04.717Z,69.39
2019-01-18T11:09:36.539Z,68.79
2019-01-18T11:12:09.457Z,68.16
2019-01-18T11:14:41.290Z,67.21
2019-01-18T11:17:12.903Z,66.39
2019-01-18T11:19:44.739Z,65.85
2019-01-18T11:22:16.693Z,66.82
2019-01-18T11:24:48.248Z,67.17
2019-01-18T11:27:20.077Z,66.99
2019-01-18T11:29:51.942Z,66.85
2019-01-18T11:32:23.496Z,66.92
2019-01-18T11:34:55.063Z,67.46
2019-01-18T11:37:28.490Z,67.58
2019-01-18T11:40:00.435Z,69.04
2019-01-18T11:42:32.236Z,69.46
2019-01-18T11:45:04.201Z,70.36
2019-01-18T11:47:36.009Z,70.12
2019-01-18T11:50:13.230Z,70.67
2019-01-18T11:52:45.021Z,71.43
2019-01-18T11:55:16.844Z,71.44
2019-01-18T11:57:48.886Z,71.61
2019-01-18T12:00:23.880Z,70.80
2019-01-18T12:02:55.714Z,70.61
2019-01-18T12:05:27.537Z,69.99
2019-01-18T12:07:59.418Z,69.87
2019-01-18T12:10:32.952Z,70.31
2019-01-18T12:13:05.095Z,70.00
2019-01-18T12:15:36.903Z,69.44
2019-01-18T12:18:08.766Z,69.59
2019-01-18T12:20:40.585Z,68.53
2019-01-18T12:23:12.400Z,68.13
2019-01-18T12:25:46.246Z,67.97
2019-01-18T12:28:18.094Z,67.36
2019-01-18T12:30:49.911Z,65.94
2019-01-18T12:33:21.818Z,66.27
2019-01-18T12:35:56.663Z,65.31
2019-01-18T12:38:28.510Z,67.33
2019-01-18T12:41:00.342Z,69.25
2019-01-18T12:43:32.183Z,69.10
2019-01-18T12:46:04.077Z,70.26
2019-01-18T12:48:35.931Z,70.12
2019-01-18T12:51:07.803Z,69.97
2019-01-18T12:53:39.798Z,70.09
2019-01-18T12:56:11.673Z,70.18
2019-01-18T12:58:43.532Z,70.24
2019-01-18T13:01:15.363Z,70.73
2019-01-18T13:03:47.214Z,70.66
2019-01-18T13:06:19.049Z,71.17
2019-01-18T13:08:50.907Z,71.55
2019-01-18T13:11:22.734Z,71.67
2019-01-18T13:13:54.589Z,71.30
2019-01-18T13:16:46.239Z,70.83
2019-01-18T13:19:27.599Z,70.59
2019-01-18T13:21:59.445Z,70.48
2019-01-18T13:24:31.308Z,70.21
2019-01-18T13:27:03.128Z,69.21
2019-01-18T13:29:34.995Z,69.40
2019-01-18T13:32:06.873Z,69.93
2019-01-18T13:34:38.734Z,69.48
2019-01-18T13:37:12.903Z,68.71
2019-01-18T13:39:44.458Z,68.30
2019-01-18T13:42:16.295Z,68.47
2019-01-18T13:44:48.122Z,67.74
2019-01-18T13:47:20.093Z,68.35
2019-01-18T13:49:52.517Z,68.60
2019-01-18T13:52:24.625Z,68.91
2019-01-18T13:54:57.134Z,67.32
2019-01-18T13:57:33.872Z,67.65
2019-01-18T14:00:07.765Z,67.25
2019-01-18T14:02:40.648Z,66.60
2019-01-18T14:05:12.998Z,67.38
2019-01-18T14:07:47.477Z,66.74
2019-01-18T14:10:26.140Z,66.69
2019-01-18T14:13:05.495Z,66.24
2019-01-18T14:15:37.062Z,66.08
2019-01-18T14:18:08.910Z,65.99
2019-01-18T14:20:41.921Z,65.56
2019-01-18T14:23:13.836Z,65.49
2019-01-18T14:25:45.735Z,65.28
2019-01-18T14:28:17.343Z,65.07
2019-01-18T14:30:48.881Z,64.57
2019-01-18T14:33:23.057Z,64.33
2019-01-18T14:35:54.918Z,64.21
2019-01-18T14:38:26.511Z,63.89
2019-01-18T14:41:00.854Z,64.01
2019-01-18T14:43:32.715Z,62.89
2019-01-18T14:46:04.543Z,63.84
2019-01-18T14:48:36.413Z,63.75
2019-01-18T14:51:08.239Z,63.64
2019-01-18T14:53:40.074Z,63.45
2019-01-18T14:56:13.705Z,63.32
2019-01-18T14:58:45.263Z,64.60
2019-01-18T15:01:16.805Z,63.43
2019-01-18T15:03:48.766Z,62.93
2019-01-18T15:06:20.642Z,62.66
2019-01-18T15:08:53.859Z,61.65
2019-01-18T15:11:25.702Z,61.29
2019-01-18T15:13:57.265Z,62.80
2019-01-18T15:16:29.113Z,63.31
2019-01-18T15:19:01.286Z,63.37
2019-01-18T15:21:32.892Z,63.67
2019-01-18T15:24:04.559Z,63.46
2019-01-18T15:26:36.427Z,63.53
2019-01-18T15:29:11.016Z,63.52
2019-01-18T15:31:42.879Z,64.04
2019-01-18T15:34:14.899Z,63.78
2019-01-18T15:36:46.559Z,64.14
2019-01-18T15:39:18.402Z,65.28
2019-01-18T15:41:49.947Z,65.05
2019-01-18T15:44:22.638Z,64.92
2019-01-18T15:46:54.473Z,65.00
2019-01-18T15:49:28.147Z,64.54
2019-01-18T15:52:00.086Z,64.85
2019-01-18T15:54:33.235Z,66.14
2019-01-18T15:57:08.066Z,66.64
2019-01-18T15:59:39.981Z,67.26
2019-01-18T16:02:11.842Z,66.46
2019-01-18T16:04:46.436Z,66.26
2019-01-18T16:07:18.296Z,66.55
2019-01-18T16:09:50.181Z,67.20
2019-01-18T16:12:23.643Z,67.64
2019-01-18T16:14:55.531Z,67.63
2019-01-18T16:17:32.357Z,67.92
2019-01-18T16:20:04.941Z,67.85
2019-01-18T16:22:36.781Z,67.76
2019-01-18T16:25:14.070Z,67.87
2019-01-18T16:27:45.898Z,67.81
2019-01-18T16:30:20.119Z,67.57
2019-01-18T16:32:52.299Z,68.25
2019-01-18T16:35:24.348Z,67.72
2019-01-18T16:37:56.223Z,67.75
2019-01-18T16:40:31.798Z,67.81
2019-01-18T16:43:24.996Z,67.87
2019-01-18T16:45:56.854Z,68.23
2019-01-18T16:48:28.682Z,68.60
2019-01-18T16:51:00.514Z,68.69
2019-01-18T16:53:34.909Z,68.64
2019-01-18T16:56:06.780Z,68.68
2019-01-18T16:58:38.856Z,68.83
2019-01-18T17:01:11.680Z,69.02
2019-01-18T17:03:43.643Z,69.20
2019-01-18T17:06:15.643Z,69.60
2019-01-18T17:08:51.670Z,69.84
2019-01-18T17:11:23.658Z,69.59
2019-01-18T17:13:55.599Z,69.73
2019-01-18T17:16:27.549Z,69.42
2019-01-18T17:18:59.657Z,69.49
2019-01-18T17:21:31.622Z,69.99
2019-01-18T17:24:03.497Z,70.44
2019-01-18T17:26:35.425Z,71.01
2019-01-18T17:29:09.098Z,71.37
2019-01-18T17:31:41.122Z,71.56
2019-01-18T17:34:13.065Z,71.67
2019-01-18T17:37:16.035Z,71.42
2019-01-18T17:40:19.742Z,71.18
2019-01-18T17:43:27.894Z,71.69
2019-01-18T17:46:38.337Z,71.46
2019-01-18T17:50:07.729Z,71.89
2019-01-18T17:53:38.640Z,72.41
2019-01-18T17:57:18.441Z,72.91
2019-01-18T18:00:33.797Z,73.31
2019-01-18T18:03:47.838Z,73.81
2019-01-18T18:07:23.282Z,74.46
2019-01-18T18:10:58.321Z,74.70
2019-01-18T18:13:48.494Z,74.88
2019-01-18T18:17:01.154Z,75.01
2019-01-18T18:21:00.181Z,75.16
2019-01-18T18:24:57.801Z,75.01
2019-01-18T18:28:08.120Z,75.10
2019-01-18T18:31:39.535Z,75.04
2019-01-18T18:35:00.924Z,75.14
2019-01-18T18:38:34.996Z,75.11
2019-01-18T18:42:02.526Z,75.23
2019-01-18T18:45:32.600Z,74.99
2019-01-18T18:48:27.647Z,74.58
2019-01-18T18:51:49.615Z,74.58
2019-01-18T18:55:30.811Z,74.43
2019-01-18T18:59:03.022Z,74.10
2019-01-18T19:02:08.056Z,73.89
2019-01-18T19:05:19.681Z,73.92
2019-01-18T19:09:08.525Z,74.60
2019-01-18T19:12:10.694Z,74.64
2019-01-18T19:15:47.433Z,75.20
2019-01-18T19:19:10.568Z,75.92
2019-01-18T19:22:28.366Z,76.27
2019-01-18T19:26:15.224Z,76.16
2019-01-18T19:29:57.790Z,76.39
2019-01-18T19:33:22.704Z,75.98
2019-01-18T19:37:09.699Z,76.14
2019-01-18T19:40:58.065Z,75.92
2019-01-18T19:44:57.069Z,75.45
2019-01-18T19:47:42.981Z,75.53
2019-01-18T19:51:30.019Z,75.45
2019-01-18T19:54:43.673Z,75.69
2019-01-18T19:57:50.967Z,76.64
2019-01-18T20:01:03.405Z,76.49
2019-01-18T20:04:47.363Z,75.78
2019-01-18T20:08:20.284Z,75.88
2019-01-18T20:12:00.448Z,75.44
2019-01-18T20:15:07.522Z,74.79
2019-01-18T20:18:37.823Z,74.40
2019-01-18T20:21:51.290Z,74.62
2019-01-18T20:25:17.805Z,73.70
2019-01-18T20:28:40.097Z,73.98
2019-01-18T20:31:56.258Z,74.00
2019-01-18T20:35:11.212Z,74.34
2019-01-18T20:38:00.117Z,75.14
2019-01-18T20:41:05.525Z,75.12
2019-01-18T20:44:28.343Z,75.56
2019-01-18T20:47:49.140Z,75.89
2019-01-18T20:51:30.467Z,75.65
2019-01-18T20:54:54.750Z,75.88
2019-01-18T20:58:45.134Z,75.92
2019-01-18T21:02:11.912Z,75.60
2019-01-18T21:05:45.218Z,75.13
2019-01-18T21:09:05.205Z,75.34
2019-01-18T21:12:37.955Z,75.42
2019-01-18T21:16:10.035Z,75.02
2019-01-18T21:20:06.702Z,74.48
2019-01-18T21:23:39.779Z,73.68
2019-01-18T21:26:50.739Z,73.48
2019-01-18T21:30:16.690Z,73.73
2019-01-18T21:33:40.702Z,74.15
2019-01-18T21:37:19.584Z,74.17
2019-01-18T21:40:20.960Z,74.28
2019-01-18T21:43:42.043Z,74.49
2019-01-18T21:47:41.377Z,74.56
2019-01-18T21:51:02.452Z,75.00
2019-01-18T21:54:22.753Z,75.31
2019-01-18T21:57:37.120Z,75.35
2019-01-18T22:01:38.603Z,75.40
2019-01-18T22:04:50.111Z,75.42
2019-01-18T22:08:29.792Z,75.40
2019-01-18T22:12:26.261Z,75.53
2019-01-18T22:16:02.720Z,75.43
2019-01-18T22:19:28.838Z,75.10
2019-01-18T22:22:40.423Z,74.60
2019-01-18T22:25:57.250Z,74.52
2019-01-18T22:29:15.454Z,74.51
2019-01-18T22:33:02.957Z,74.32
2019-01-18T22:36:18.782Z,74.15
2019-01-18T22:40:06.164Z,73.71
2019-01-18T22:43:47.406Z,73.66
2019-01-18T22:47:17.466Z,73.46
2019-01-18T22:50:43.621Z,73.52
2019-01-18T22:54:06.503Z,73.37
2019-01-18T22:57:30.966Z,73.29
2019-01-18T23:01:07.897Z,73.28
2019-01-18T23:04:25.560Z,73.52
2019-01-18T23:08:01.027Z,73.33
2019-01-18T23:11:09.228Z,72.87
2019-01-18T23:14:38.390Z,73.01
2019-01-18T23:17:51.363Z,72.91
2019-01-18T23:21:19.910Z,73.14
2019-01-18T23:24:47.987Z,73.10
2019-01-18T23:28:18.479Z,74.10
2019-01-18T23:31:15.942Z,74.74
2019-01-18T23:34:23.283Z,75.08
2019-01-18T23:37:39.753Z,75.47
2019-01-18T23:40:59.549Z,75.31
2019-01-18T23:44:29.646Z,75.60
2019-01-18T23:47:57.013Z,75.28
2019-01-18T23:51:00.334Z,75.34
2019-01-18T23:54:09.631Z,75.04
2019-01-18T23:57:43.681Z,75.29
